createdAt,value
2022-08-27T00:00:58.050Z,98222.87
2022-08-27T00:02:00.518Z,98218.79
2022-08-27T00:03:02.794Z,98217.88
2022-08-27T00:04:04.529Z,98216.55
2022-08-27T00:05:07.198Z,98216.47
2022-08-27T00:06:08.915Z,98209.14
2022-08-27T00:07:13.579Z,98208.54
2022-08-27T00:08:15.351Z,98211.50
2022-08-27T00:09:17.177Z,98210.09
2022-08-27T00:10:28.626Z,98216.06
2022-08-27T00:11:30.341Z,98213.38
2022-08-27T00:12:32.834Z,98213.39
2022-08-27T00:13:34.737Z,98208.77
2022-08-27T00:14:38.756Z,98208.81
2022-08-27T00:15:40.497Z,98206.85
2022-08-27T00:16:43.147Z,98209.54
2022-08-27T00:17:46.743Z,98205.63
2022-08-27T00:18:49.223Z,98205.92
2022-08-27T00:19:50.960Z,98208.10
2022-08-27T00:20:53.040Z,98203.55
2022-08-27T00:21:55.900Z,98202.58
2022-08-27T00:22:57.608Z,98203.71
2022-08-27T00:23:59.992Z,98203.77
2022-08-27T00:25:02.068Z,98199.69
2022-08-27T00:26:06.292Z,98201.95
2022-08-27T00:27:08.052Z,98203.52
2022-08-27T00:28:11.071Z,98202.59
2022-08-27T00:29:13.225Z,98205.78
2022-08-27T00:30:18.401Z,98200.95
2022-08-27T00:31:20.313Z,98205.39
2022-08-27T00:32:25.384Z,98204.60
2022-08-27T00:33:27.449Z,98206.38
2022-08-27T00:34:29.881Z,98208.19
2022-08-27T00:35:31.781Z,98208.07
2022-08-27T00:36:33.543Z,98213.06
2022-08-27T00:37:36.491Z,98214.11
2022-08-27T00:38:39.883Z,98215.58
2022-08-27T00:39:41.687Z,98214.06
2022-08-27T00:40:43.531Z,98212.23
2022-08-27T00:41:45.385Z,98216.61
2022-08-27T00:42:47.871Z,98214.71
2022-08-27T00:43:54.153Z,98213.77
2022-08-27T00:44:55.879Z,98214.14
2022-08-27T00:46:21.652Z,98213.17
2022-08-27T00:47:27.961Z,98211.61
2022-08-27T00:48:35.202Z,98209.29
2022-08-27T00:49:39.668Z,98205.70
2022-08-27T00:50:50.476Z,98204.45
2022-08-27T00:52:21.465Z,98203.92
2022-08-27T00:53:29.624Z,98202.17
2022-08-27T00:54:32.396Z,98200.36
2022-08-27T00:55:43.247Z,98198.92
2022-08-27T00:56:50.624Z,98201.96
2022-08-27T00:58:07.708Z,98198.16
2022-08-27T00:59:09.428Z,98198.08
2022-08-27T01:00:19.050Z,98197.20
2022-08-27T01:01:25.951Z,98195.71
2022-08-27T01:02:30.722Z,98193.48
2022-08-27T01:03:34.608Z,98191.73
2022-08-27T01:04:40.611Z,98191.45
2022-08-27T01:05:45.650Z,98191.73
2022-08-27T01:06:47.465Z,98190.58
2022-08-27T01:07:54.173Z,98190.88
2022-08-27T01:09:04.837Z,98186.98
2022-08-27T01:10:14.056Z,98190.55
2022-08-27T01:11:15.980Z,98191.70
2022-08-27T01:12:18.709Z,98188.55
2022-08-27T01:13:54.407Z,98183.75
2022-08-27T01:14:47.275Z,98187.25
2022-08-27T01:15:49.669Z,98186.13
2022-08-27T01:16:55.797Z,98190.81
2022-08-27T01:17:59.759Z,98189.89
2022-08-27T01:19:04.197Z,98188.41
2022-08-27T01:20:12.673Z,98187.39
2022-08-27T01:21:24.581Z,98186.66
2022-08-27T01:22:47.778Z,98186.41
2022-08-27T01:24:13.492Z,98188.50
2022-08-27T01:25:18.267Z,98190.44
2022-08-27T01:26:20.862Z,98188.33
2022-08-27T01:27:27.663Z,98184.68
2022-08-27T01:28:35.771Z,98185.45
2022-08-27T01:29:39.781Z,98183.98
2022-08-27T01:30:41.877Z,98181.86
2022-08-27T01:31:43.589Z,98182.88
2022-08-27T01:32:46.589Z,98184.94
2022-08-27T01:34:02.928Z,98180.55
2022-08-27T01:35:09.420Z,98178.89
2022-08-27T01:36:11.200Z,98180.23
2022-08-27T01:37:15.368Z,98178.27
2022-08-27T01:38:30.805Z,98180.80
2022-08-27T01:39:39.524Z,98178.41
2022-08-27T01:40:43.763Z,98183.48
2022-08-27T01:41:46.944Z,98185.11
2022-08-27T01:42:57.154Z,98189.43
2022-08-27T01:43:58.870Z,98189.01
2022-08-27T01:45:05.869Z,98192.31
2022-08-27T01:46:07.764Z,98193.60
2022-08-27T01:47:09.581Z,98193.36
2022-08-27T01:48:12.051Z,98196.11
2022-08-27T01:49:13.921Z,98194.56
2022-08-27T01:50:23.460Z,98192.45
2022-08-27T01:51:25.249Z,98194.92
2022-08-27T01:52:30.427Z,98197.96
2022-08-27T01:53:32.321Z,98196.35
2022-08-27T01:54:34.033Z,98193.70
2022-08-27T01:55:35.777Z,98197.16
2022-08-27T01:56:37.545Z,98197.55
2022-08-27T01:57:40.024Z,98198.53
2022-08-27T01:58:42.594Z,98200.36
2022-08-27T01:59:45.163Z,98201.08
2022-08-27T02:00:56.262Z,98199.48
2022-08-27T02:01:59.021Z,98199.60
2022-08-27T02:03:01.292Z,98199.84
2022-08-27T02:04:03.216Z,98202.39
2022-08-27T02:05:05.790Z,98200.55
2022-08-27T02:06:10.882Z,98200.80
2022-08-27T02:07:12.818Z,98204.31
2022-08-27T02:08:17.607Z,98204.98
2022-08-27T02:09:19.364Z,98206.78
2022-08-27T02:10:32.428Z,98210.68
2022-08-27T02:11:34.201Z,98206.13
2022-08-27T02:12:47.287Z,98206.27
2022-08-27T02:13:49.299Z,98208.50
2022-08-27T02:14:51.812Z,98206.59
2022-08-27T02:15:54.199Z,98208.59
2022-08-27T02:16:56.769Z,98208.23
2022-08-27T02:17:58.593Z,98214.52
2022-08-27T02:19:01.136Z,98208.95
2022-08-27T02:20:04.233Z,98212.64
2022-08-27T02:21:06.078Z,98208.28
2022-08-27T02:22:08.221Z,98206.56
2022-08-27T02:23:10.359Z,98210.00
2022-08-27T02:24:12.053Z,98209.48
2022-08-27T02:25:15.537Z,98210.09
2022-08-27T02:26:17.856Z,98210.70
2022-08-27T02:27:20.196Z,98210.02
2022-08-27T02:28:22.462Z,98212.44
2022-08-27T02:29:25.470Z,98211.16
2022-08-27T02:30:29.216Z,98213.05
2022-08-27T02:31:31.716Z,98209.02
2022-08-27T02:32:33.720Z,98208.84
2022-08-27T02:33:35.552Z,98211.86
2022-08-27T02:34:37.450Z,98214.42
2022-08-27T02:35:40.536Z,98212.55
2022-08-27T02:36:42.337Z,98213.91
2022-08-27T02:37:45.750Z,98211.52
2022-08-27T02:38:47.606Z,98209.91
2022-08-27T02:39:49.573Z,98210.61
2022-08-27T02:40:51.817Z,98208.95
2022-08-27T02:41:55.836Z,98212.52
2022-08-27T02:42:57.591Z,98208.00
2022-08-27T02:44:01.234Z,98209.77
2022-08-27T02:45:05.055Z,98209.36
2022-08-27T02:46:06.863Z,98205.34
2022-08-27T02:47:08.665Z,98207.59
2022-08-27T02:48:10.658Z,98206.09
2022-08-27T02:49:12.496Z,98201.69
2022-08-27T02:50:15.233Z,98203.23
2022-08-27T02:51:16.938Z,98202.39
2022-08-27T02:52:24.821Z,98201.94
2022-08-27T02:53:27.227Z,98200.36
2022-08-27T02:54:30.930Z,98201.91
2022-08-27T02:55:33.877Z,98201.15
2022-08-27T02:56:36.159Z,98201.41
2022-08-27T02:57:37.869Z,98198.14
2022-08-27T02:58:41.361Z,98202.77
2022-08-27T02:59:43.039Z,98205.55
2022-08-27T03:00:45.576Z,98205.00
2022-08-27T03:01:48.055Z,98199.85
2022-08-27T03:02:50.059Z,98197.90
2022-08-27T03:03:52.506Z,98195.09
2022-08-27T03:04:54.280Z,98195.18
2022-08-27T03:05:58.061Z,98195.05
2022-08-27T03:07:00.427Z,98194.62
2022-08-27T03:08:03.598Z,98192.00
2022-08-27T03:09:06.192Z,98189.33
2022-08-27T03:10:11.132Z,98192.84
2022-08-27T03:11:13.019Z,98187.65
2022-08-27T03:12:16.025Z,98187.96
2022-08-27T03:13:18.812Z,98191.31
2022-08-27T03:14:20.930Z,98194.86
2022-08-27T03:15:22.740Z,98197.16
2022-08-27T03:16:25.979Z,98196.55
2022-08-27T03:17:46.285Z,98197.08
2022-08-27T03:18:48.011Z,98199.46
2022-08-27T03:19:50.698Z,98202.27
2022-08-27T03:20:55.725Z,98200.20
2022-08-27T03:21:57.496Z,98199.67
2022-08-27T03:23:00.773Z,98201.68
2022-08-27T03:24:11.421Z,98195.61
2022-08-27T03:25:14.262Z,98195.73
2022-08-27T03:26:17.011Z,98191.88
2022-08-27T03:27:18.714Z,98192.57
2022-08-27T03:28:25.936Z,98191.27
2022-08-27T03:29:28.379Z,98190.10
2022-08-27T03:30:30.349Z,98185.61
2022-08-27T03:31:32.082Z,98186.98
2022-08-27T03:32:35.528Z,98182.48
2022-08-27T03:33:39.631Z,98178.30
2022-08-27T03:34:41.394Z,98183.29
2022-08-27T03:35:43.349Z,98184.14
2022-08-27T03:36:46.884Z,98181.56
2022-08-27T03:37:49.020Z,98179.70
2022-08-27T03:38:50.829Z,98181.59
2022-08-27T03:39:53.201Z,98181.29
2022-08-27T03:40:55.756Z,98181.48
2022-08-27T03:41:57.466Z,98182.04
2022-08-27T03:42:59.212Z,98181.11
2022-08-27T03:44:01.292Z,98181.83
2022-08-27T03:45:03.881Z,98187.77
2022-08-27T03:46:08.231Z,98188.64
2022-08-27T03:47:09.963Z,98188.48
2022-08-27T03:48:13.888Z,98188.73
2022-08-27T03:49:15.683Z,98188.91
2022-08-27T03:50:22.211Z,98188.30
2022-08-27T03:51:23.921Z,98185.69
2022-08-27T03:52:26.868Z,98184.36
2022-08-27T03:53:28.591Z,98184.88
2022-08-27T03:54:31.301Z,98185.83
2022-08-27T03:55:33.009Z,98180.45
2022-08-27T03:56:39.314Z,98183.52
2022-08-27T03:57:41.053Z,98183.61
2022-08-27T03:58:42.801Z,98189.17
2022-08-27T03:59:44.589Z,98182.98
2022-08-27T04:00:46.544Z,98183.40
2022-08-27T04:01:48.934Z,98185.30
2022-08-27T04:02:51.991Z,98183.17
2022-08-27T04:03:53.700Z,98184.66
2022-08-27T04:04:57.770Z,98186.94
2022-08-27T04:06:00.073Z,98184.93
2022-08-27T04:07:01.913Z,98184.28
2022-08-27T04:08:03.694Z,98186.40
2022-08-27T04:09:05.433Z,98186.92
2022-08-27T04:10:09.599Z,98185.66
2022-08-27T04:11:11.751Z,98189.61
2022-08-27T04:12:13.485Z,98186.94
2022-08-27T04:13:16.040Z,98186.29
2022-08-27T04:14:26.961Z,98183.22
2022-08-27T04:15:29.993Z,98182.71
2022-08-27T04:16:33.863Z,98188.63
2022-08-27T04:17:35.878Z,98179.04
2022-08-27T04:18:38.712Z,98179.22
2022-08-27T04:19:40.437Z,98178.58
2022-08-27T04:20:47.510Z,98182.53
2022-08-27T04:21:49.509Z,98178.39
2022-08-27T04:22:51.209Z,98181.05
2022-08-27T04:23:53.697Z,98183.14
2022-08-27T04:24:55.709Z,98182.80
2022-08-27T04:25:57.466Z,98185.09
2022-08-27T04:27:00.808Z,98182.09
2022-08-27T04:28:02.694Z,98184.64
2022-08-27T04:29:04.473Z,98184.73
2022-08-27T04:30:09.376Z,98180.84
2022-08-27T04:31:16.443Z,98181.16
2022-08-27T04:32:18.608Z,98180.88
2022-08-27T04:33:21.529Z,98179.21
2022-08-27T04:34:24.133Z,98178.64
2022-08-27T04:35:25.838Z,98176.92
2022-08-27T04:36:27.661Z,98179.76
2022-08-27T04:37:33.334Z,98177.27
2022-08-27T04:38:35.053Z,98175.31
2022-08-27T04:39:36.826Z,98178.08
2022-08-27T04:40:57.310Z,98176.98
2022-08-27T04:42:00.908Z,98179.94
2022-08-27T04:43:02.624Z,98181.02
2022-08-27T04:44:07.807Z,98180.31
2022-08-27T04:45:10.173Z,98180.34
2022-08-27T04:46:12.767Z,98184.44
2022-08-27T04:47:17.028Z,98185.84
2022-08-27T04:48:19.624Z,98183.79
2022-08-27T04:49:21.319Z,98188.54
2022-08-27T04:50:23.197Z,98189.41
2022-08-27T04:51:31.896Z,98191.11
2022-08-27T04:52:33.649Z,98188.96
2022-08-27T04:53:42.874Z,98189.90
2022-08-27T04:54:44.748Z,98189.55
2022-08-27T04:55:52.796Z,98187.63
2022-08-27T04:56:55.249Z,98186.47
2022-08-27T04:57:56.978Z,98188.02
2022-08-27T04:58:59.090Z,98186.29
2022-08-27T05:00:00.911Z,98185.92
2022-08-27T05:01:02.608Z,98186.55
2022-08-27T05:02:06.413Z,98185.92
2022-08-27T05:03:08.201Z,98185.38
2022-08-27T05:04:14.412Z,98189.44
2022-08-27T05:05:16.313Z,98188.58
2022-08-27T05:06:18.660Z,98191.06
2022-08-27T05:07:20.370Z,98192.23
2022-08-27T05:08:22.176Z,98191.75
2022-08-27T05:09:24.461Z,98191.63
2022-08-27T05:10:26.401Z,98187.68
2022-08-27T05:11:32.362Z,98191.13
2022-08-27T05:12:34.188Z,98184.14
2022-08-27T05:13:38.036Z,98186.11
2022-08-27T05:14:39.762Z,98186.98
2022-08-27T05:15:42.069Z,98187.61
2022-08-27T05:16:43.943Z,98188.48
2022-08-27T05:17:45.760Z,98188.16
2022-08-27T05:18:50.489Z,98188.82
2022-08-27T05:19:52.225Z,98188.91
2022-08-27T05:20:54.211Z,98185.39
2022-08-27T05:21:56.163Z,98186.02
2022-08-27T05:22:58.438Z,98186.79
2022-08-27T05:24:03.476Z,98184.70
2022-08-27T05:25:06.333Z,98184.22
2022-08-27T05:26:08.911Z,98186.95
2022-08-27T05:27:11.630Z,98183.86
2022-08-27T05:28:17.000Z,98188.79
2022-08-27T05:29:18.745Z,98186.81
2022-08-27T05:30:20.981Z,98187.83
2022-08-27T05:31:22.887Z,98188.35
2022-08-27T05:32:24.656Z,98188.10
2022-08-27T05:33:26.430Z,98188.38
2022-08-27T05:34:29.161Z,98188.45
2022-08-27T05:35:32.756Z,98185.51
2022-08-27T05:36:35.683Z,98188.94
2022-08-27T05:37:37.513Z,98185.49
2022-08-27T05:38:39.345Z,98183.95
2022-08-27T05:39:41.441Z,98182.65
2022-08-27T05:40:43.912Z,98184.34
2022-08-27T05:41:45.728Z,98179.86
2022-08-27T05:42:51.203Z,98182.83
2022-08-27T05:43:56.296Z,98187.23
2022-08-27T05:44:59.093Z,98189.05
2022-08-27T05:46:05.924Z,98187.76
2022-08-27T05:47:08.085Z,98189.50
2022-08-27T05:48:13.038Z,98186.99
2022-08-27T05:49:15.057Z,98189.04
2022-08-27T05:50:20.700Z,98187.89
2022-08-27T05:51:31.424Z,98189.53
2022-08-27T05:52:34.305Z,98191.39
2022-08-27T05:53:38.536Z,98191.20
2022-08-27T05:54:40.356Z,98187.93
2022-08-27T05:55:46.009Z,98187.11
2022-08-27T05:56:49.986Z,98185.98
2022-08-27T05:57:51.837Z,98186.51
2022-08-27T05:59:12.440Z,98185.23
2022-08-27T06:00:33.045Z,98181.86
2022-08-27T06:01:42.928Z,98186.17
2022-08-27T06:02:45.482Z,98185.20
2022-08-27T06:03:47.304Z,98181.38
2022-08-27T06:04:49.066Z,98182.15
2022-08-27T06:06:01.404Z,98186.29
2022-08-27T06:07:04.546Z,98187.48
2022-08-27T06:08:06.829Z,98186.11
2022-08-27T06:09:11.814Z,98189.34
2022-08-27T06:10:13.586Z,98190.89
2022-08-27T06:11:15.751Z,98187.05
2022-08-27T06:12:18.473Z,98187.63
2022-08-27T06:13:21.022Z,98189.48
2022-08-27T06:14:23.165Z,98184.66
2022-08-27T06:15:25.034Z,98190.08
2022-08-27T06:16:27.956Z,98185.05
2022-08-27T06:17:29.737Z,98188.39
2022-08-27T06:18:32.469Z,98185.78
2022-08-27T06:19:36.346Z,98185.09
2022-08-27T06:20:38.084Z,98184.42
2022-08-27T06:21:41.868Z,98186.52
2022-08-27T06:22:44.761Z,98185.58
2022-08-27T06:23:47.808Z,98189.35
2022-08-27T06:24:50.243Z,98192.66
2022-08-27T06:25:52.155Z,98191.41
2022-08-27T06:26:54.120Z,98194.49
2022-08-27T06:27:56.907Z,98190.70
2022-08-27T06:29:04.098Z,98190.85
2022-08-27T06:30:07.548Z,98192.74
2022-08-27T06:31:18.193Z,98190.31
2022-08-27T06:32:21.005Z,98190.73
2022-08-27T06:33:22.709Z,98193.36
2022-08-27T06:34:24.445Z,98190.14
2022-08-27T06:35:26.550Z,98190.86
2022-08-27T06:36:30.037Z,98185.70
2022-08-27T06:37:31.892Z,98183.96
2022-08-27T06:38:34.609Z,98185.21
2022-08-27T06:39:37.887Z,98183.05
2022-08-27T06:40:42.747Z,98183.53
2022-08-27T06:41:45.549Z,98187.14
2022-08-27T06:42:47.602Z,98188.25
2022-08-27T06:43:49.644Z,98190.39
2022-08-27T06:44:51.473Z,98190.15
2022-08-27T06:45:53.730Z,98192.29
2022-08-27T06:46:56.689Z,98190.16
2022-08-27T06:47:58.422Z,98188.48
2022-08-27T06:49:01.305Z,98186.34
2022-08-27T06:50:03.914Z,98187.29
2022-08-27T06:51:16.084Z,98187.85
2022-08-27T06:52:17.872Z,98184.91
2022-08-27T06:53:21.527Z,98186.79
2022-08-27T06:54:26.741Z,98183.57
2022-08-27T06:55:28.483Z,98180.25
2022-08-27T06:56:31.228Z,98181.80
2022-08-27T06:57:33.975Z,98182.68
2022-08-27T06:58:36.143Z,98182.13
2022-08-27T06:59:38.756Z,98183.30
2022-08-27T07:00:46.066Z,98185.06
2022-08-27T07:01:51.647Z,98189.39
2022-08-27T07:02:54.350Z,98187.95
2022-08-27T07:03:58.319Z,98190.45
2022-08-27T07:05:00.219Z,98190.33
2022-08-27T07:06:06.002Z,98191.48
2022-08-27T07:07:08.162Z,98188.38
2022-08-27T07:08:10.401Z,98187.21
2022-08-27T07:09:12.507Z,98185.37
2022-08-27T07:10:14.657Z,98186.20
2022-08-27T07:11:17.294Z,98186.30
2022-08-27T07:12:19.150Z,98185.36
2022-08-27T07:13:20.860Z,98188.34
2022-08-27T07:14:22.569Z,98188.23
2022-08-27T07:15:25.959Z,98187.52
2022-08-27T07:16:30.207Z,98191.20
2022-08-27T07:17:32.436Z,98189.29
2022-08-27T07:18:34.677Z,98188.32
2022-08-27T07:19:40.807Z,98189.39
2022-08-27T07:20:43.217Z,98188.42
2022-08-27T07:21:44.899Z,98186.83
2022-08-27T07:22:48.654Z,98190.42
2022-08-27T07:23:52.671Z,98188.08
2022-08-27T07:24:54.341Z,98186.92
2022-08-27T07:25:56.538Z,98187.38
2022-08-27T07:26:58.947Z,98188.14
2022-08-27T07:28:00.999Z,98187.95
2022-08-27T07:29:06.141Z,98186.79
2022-08-27T07:30:15.856Z,98185.40
2022-08-27T07:31:22.547Z,98185.59
2022-08-27T07:32:30.448Z,98184.84
2022-08-27T07:33:33.450Z,98181.40
2022-08-27T07:34:35.300Z,98182.54
2022-08-27T07:35:37.241Z,98182.08
2022-08-27T07:36:39.153Z,98185.67
2022-08-27T07:37:41.799Z,98184.66
2022-08-27T07:38:43.613Z,98181.20
2022-08-27T07:39:45.829Z,98185.66
2022-08-27T07:40:47.506Z,98187.80
2022-08-27T07:42:07.824Z,98186.00
2022-08-27T07:43:28.587Z,98187.79
2022-08-27T07:44:34.364Z,98188.21
2022-08-27T07:45:45.092Z,98183.73
2022-08-27T07:46:48.689Z,98185.64
2022-08-27T07:47:51.850Z,98187.00
2022-08-27T07:48:56.349Z,98179.48
2022-08-27T07:49:58.520Z,98177.67
2022-08-27T07:51:05.101Z,98180.77
2022-08-27T07:52:06.978Z,98179.02
2022-08-27T07:53:09.367Z,98180.47
2022-08-27T07:54:11.297Z,98179.45
2022-08-27T07:55:14.733Z,98182.61
2022-08-27T07:56:17.476Z,98182.48
2022-08-27T07:57:19.421Z,98181.08
2022-08-27T07:58:21.113Z,98186.16
2022-08-27T07:59:24.345Z,98186.89
2022-08-27T08:00:27.437Z,98187.99
2022-08-27T08:01:30.086Z,98190.06
2022-08-27T08:02:32.036Z,98188.56
2022-08-27T08:03:34.053Z,98188.48
2022-08-27T08:04:35.890Z,98193.63
2022-08-27T08:05:45.182Z,98190.15
2022-08-27T08:06:46.845Z,98191.98
2022-08-27T08:07:48.750Z,98192.05
2022-08-27T08:08:50.547Z,98191.66
2022-08-27T08:09:52.309Z,98192.38
2022-08-27T08:10:57.502Z,98193.17
2022-08-27T08:11:59.250Z,98191.19
2022-08-27T08:13:01.062Z,98195.23
2022-08-27T08:14:02.820Z,98193.04
2022-08-27T08:15:07.901Z,98192.40
2022-08-27T08:16:10.260Z,98192.39
2022-08-27T08:17:12.010Z,98195.41
2022-08-27T08:18:14.478Z,98191.91
2022-08-27T08:19:17.241Z,98191.35
2022-08-27T08:20:27.413Z,98193.41
2022-08-27T08:21:38.943Z,98191.58
2022-08-27T08:22:40.675Z,98188.64
2022-08-27T08:23:43.956Z,98191.24
2022-08-27T08:24:45.884Z,98190.06
2022-08-27T08:25:47.623Z,98189.56
2022-08-27T08:26:49.472Z,98194.73
2022-08-27T08:27:51.313Z,98193.20
2022-08-27T08:28:53.117Z,98194.77
2022-08-27T08:29:54.965Z,98191.91
2022-08-27T08:30:57.716Z,98194.20
2022-08-27T08:31:59.427Z,98193.96
2022-08-27T08:33:01.158Z,98195.38
2022-08-27T08:34:03.556Z,98196.55
2022-08-27T08:35:06.916Z,98199.23
2022-08-27T08:36:12.865Z,98196.20
2022-08-27T08:37:14.737Z,98198.41
2022-08-27T08:38:18.232Z,98195.64
2022-08-27T08:39:20.115Z,98198.72
2022-08-27T08:40:37.141Z,98196.09
2022-08-27T08:41:51.502Z,98198.55
2022-08-27T08:42:56.688Z,98199.56
2022-08-27T08:44:05.330Z,98197.55
2022-08-27T08:45:08.172Z,98196.41
2022-08-27T08:46:31.426Z,98199.57
2022-08-27T08:47:46.340Z,98199.06
2022-08-27T08:48:55.502Z,98199.13
2022-08-27T08:50:19.813Z,98200.85
2022-08-27T08:51:32.817Z,98202.11
2022-08-27T08:52:34.403Z,98202.46
2022-08-27T08:53:56.981Z,98199.80
2022-08-27T08:55:29.243Z,98201.65
2022-08-27T08:56:55.068Z,98196.55
2022-08-27T08:58:15.513Z,98199.20
2022-08-27T08:59:28.187Z,98195.04
2022-08-27T09:00:30.164Z,98193.03
2022-08-27T09:01:31.983Z,98193.27
2022-08-27T09:02:33.747Z,98194.84
2022-08-27T09:03:40.819Z,98192.77
2022-08-27T09:04:44.419Z,98192.98
2022-08-27T09:05:54.979Z,98190.91
2022-08-27T09:07:13.464Z,98191.68
2022-08-27T09:08:35.407Z,98188.80
2022-08-27T09:10:08.186Z,98188.34
2022-08-27T09:11:28.833Z,98186.40
2022-08-27T09:12:33.284Z,98187.24
2022-08-27T09:13:42.188Z,98185.16
2022-08-27T09:15:09.335Z,98191.49
2022-08-27T09:16:14.310Z,98190.32
2022-08-27T09:17:17.029Z,98194.91
2022-08-27T09:18:19.087Z,98188.05
2022-08-27T09:19:24.719Z,98193.43
2022-08-27T09:20:26.926Z,98193.77
2022-08-27T09:21:45.030Z,98195.38
2022-08-27T09:22:52.924Z,98191.45
2022-08-27T09:24:15.255Z,98189.56
2022-08-27T09:25:33.172Z,98194.93
2022-08-27T09:26:39.592Z,98192.27
2022-08-27T09:27:43.524Z,98191.86
2022-08-27T09:29:31.748Z,98195.97
2022-08-27T09:30:43.364Z,98193.42
2022-08-27T09:31:58.752Z,98195.98
2022-08-27T09:33:04.376Z,98195.95
2022-08-27T09:34:06.264Z,98197.11
2022-08-27T09:35:12.781Z,98195.96
2022-08-27T09:36:22.961Z,98195.75
2022-08-27T09:37:34.488Z,98197.92
2022-08-27T09:38:37.288Z,98199.41
2022-08-27T09:39:53.780Z,98196.16
2022-08-27T09:41:01.453Z,98198.61
2022-08-27T09:42:04.540Z,98195.39
2022-08-27T09:43:18.169Z,98190.58
2022-08-27T09:44:20.972Z,98195.40
2022-08-27T09:45:27.085Z,98194.43
2022-08-27T09:46:29.792Z,98192.14
2022-08-27T09:47:46.689Z,98190.23
2022-08-27T09:48:48.480Z,98190.71
2022-08-27T09:50:08.437Z,98189.63
2022-08-27T09:51:14.760Z,98187.02
2022-08-27T09:52:48.991Z,98186.23
2022-08-27T09:53:56.172Z,98182.81
2022-08-27T09:54:58.906Z,98178.77
2022-08-27T09:56:03.908Z,98180.41
2022-08-27T09:57:08.064Z,98177.71
2022-08-27T09:58:21.789Z,98178.52
2022-08-27T09:59:31.693Z,98179.83
2022-08-27T10:00:41.225Z,98179.10
2022-08-27T10:01:55.803Z,98181.84
2022-08-27T10:03:01.308Z,98180.14
2022-08-27T10:04:05.225Z,98177.92
2022-08-27T10:05:18.860Z,98180.17
2022-08-27T10:06:28.708Z,98178.05
2022-08-27T10:07:52.582Z,98177.23
2022-08-27T10:09:07.009Z,98179.08
2022-08-27T10:10:52.661Z,98175.52
2022-08-27T10:12:09.641Z,98182.17
2022-08-27T10:13:42.631Z,98183.59
2022-08-27T10:14:53.134Z,98185.23
2022-08-27T10:16:26.465Z,98184.68
2022-08-27T10:17:34.619Z,98184.67
2022-08-27T10:19:24.998Z,98184.88
2022-08-27T10:20:54.568Z,98185.59
2022-08-27T10:22:35.809Z,98181.11
2022-08-27T10:24:01.533Z,98178.91
2022-08-27T10:25:20.674Z,98179.81
2022-08-27T10:26:28.720Z,98178.07
2022-08-27T10:27:59.103Z,98178.98
2022-08-27T10:29:20.332Z,98178.59
2022-08-27T10:30:38.480Z,98175.52
2022-08-27T10:31:55.822Z,98180.52
2022-08-27T10:33:21.451Z,98186.70
2022-08-27T10:34:32.276Z,98181.34
2022-08-27T10:35:54.408Z,98181.69
2022-08-27T10:37:19.763Z,98182.12
2022-08-27T10:38:30.669Z,98180.02
2022-08-27T10:39:41.150Z,98177.32
2022-08-27T10:40:57.248Z,98179.64
2022-08-27T10:42:19.202Z,98180.27
2022-08-27T10:43:27.490Z,98181.06
2022-08-27T10:44:40.854Z,98183.40
2022-08-27T10:46:03.986Z,98188.84
2022-08-27T10:47:30.705Z,98188.50
2022-08-27T10:48:38.996Z,98185.39
2022-08-27T10:50:05.730Z,98185.27
2022-08-27T10:51:23.810Z,98185.22
2022-08-27T10:52:37.493Z,98183.11
2022-08-27T10:53:55.109Z,98183.07
2022-08-27T10:55:01.676Z,98186.36
2022-08-27T10:56:10.565Z,98181.19
2022-08-27T10:57:35.762Z,98184.13
2022-08-27T10:59:28.400Z,98177.76
2022-08-27T11:01:11.820Z,98175.42
2022-08-27T11:02:36.209Z,98178.94
2022-08-27T11:03:57.341Z,98172.70
2022-08-27T11:05:09.648Z,98179.81
2022-08-27T11:06:24.885Z,98177.63
2022-08-27T11:07:40.225Z,98178.17
2022-08-27T11:08:50.037Z,98179.43
2022-08-27T11:10:06.212Z,98178.15
2022-08-27T11:12:44.452Z,98181.73
2022-08-27T11:13:51.789Z,98183.98
2022-08-27T11:15:00.392Z,98178.48
2022-08-27T11:16:12.031Z,98177.93
2022-08-27T11:17:36.692Z,98180.50
2022-08-27T11:18:52.760Z,98179.88
2022-08-27T11:20:09.910Z,98177.70
2022-08-27T11:21:36.139Z,98177.38
2022-08-27T11:22:49.093Z,98176.59
2022-08-27T11:23:58.499Z,98178.63
2022-08-27T11:25:14.160Z,98174.07
2022-08-27T11:26:15.976Z,98174.90
2022-08-27T11:27:24.045Z,98171.40
2022-08-27T11:28:41.854Z,98172.67
2022-08-27T11:30:04.821Z,98173.14
2022-08-27T11:31:28.634Z,98168.43
2022-08-27T11:32:42.892Z,98169.11
2022-08-27T11:33:51.414Z,98170.91
2022-08-27T11:34:53.049Z,98167.19
2022-08-27T11:36:07.330Z,98168.05
2022-08-27T11:37:14.885Z,98168.99
2022-08-27T11:38:27.780Z,98171.72
2022-08-27T11:40:14.389Z,98168.01
2022-08-27T11:41:28.689Z,98168.86
2022-08-27T11:42:42.141Z,98168.02
2022-08-27T11:43:45.160Z,98167.13
2022-08-27T11:44:54.583Z,98166.88
2022-08-27T11:46:03.334Z,98167.33
2022-08-27T11:47:21.572Z,98163.83
2022-08-27T11:48:32.017Z,98166.48
2022-08-27T11:49:45.356Z,98164.29
2022-08-27T11:51:18.615Z,98165.20
2022-08-27T11:52:49.389Z,98163.88
2022-08-27T11:54:44.374Z,98162.55
2022-08-27T11:55:46.076Z,98162.19
2022-08-27T11:56:47.840Z,98162.14
2022-08-27T11:58:08.874Z,98165.64
2022-08-27T11:59:20.355Z,98158.76
2022-08-27T12:00:33.796Z,98159.45
2022-08-27T12:01:35.561Z,98159.45
2022-08-27T12:02:37.277Z,98158.77
2022-08-27T12:03:39.085Z,98154.86
2022-08-27T12:04:42.584Z,98156.88
2022-08-27T12:05:45.834Z,98160.59
2022-08-27T12:07:01.537Z,98155.84
2022-08-27T12:08:15.508Z,98158.25
2022-08-27T12:09:23.955Z,98158.62
2022-08-27T12:10:31.472Z,98158.81
2022-08-27T12:11:58.226Z,98153.21
2022-08-27T12:13:22.844Z,98154.05
2022-08-27T12:14:40.155Z,98153.55
2022-08-27T12:15:59.317Z,98153.23
2022-08-27T12:17:22.292Z,98154.58
2022-08-27T12:19:01.615Z,98157.06
2022-08-27T12:20:30.944Z,98154.89
2022-08-27T12:22:03.761Z,98157.54
2022-08-27T12:23:44.081Z,98154.55
2022-08-27T12:24:58.167Z,98153.59
2022-08-27T12:26:28.752Z,98154.98
2022-08-27T12:27:36.643Z,98151.96
2022-08-27T12:28:38.406Z,98150.61
2022-08-27T12:29:57.707Z,98148.09
2022-08-27T12:30:59.715Z,98151.02
2022-08-27T12:32:19.694Z,98149.02
2022-08-27T12:33:34.443Z,98143.65
2022-08-27T12:34:48.401Z,98142.30
2022-08-27T12:35:55.079Z,98145.88
2022-08-27T12:36:57.890Z,98141.66
2022-08-27T12:38:13.985Z,98140.09
2022-08-27T12:39:25.163Z,98139.91
2022-08-27T12:40:37.696Z,98140.33
2022-08-27T12:41:46.418Z,98136.85
2022-08-27T12:42:48.196Z,98139.20
2022-08-27T12:43:49.937Z,98134.17
2022-08-27T12:44:57.299Z,98132.97
2022-08-27T12:46:10.888Z,98129.88
2022-08-27T12:47:16.211Z,98132.48
2022-08-27T12:48:24.101Z,98133.66
2022-08-27T12:49:38.214Z,98130.95
2022-08-27T12:50:40.936Z,98134.34
2022-08-27T12:51:45.423Z,98131.19
2022-08-27T12:53:12.667Z,98134.34
2022-08-27T12:54:42.982Z,98133.08
2022-08-27T12:56:11.831Z,98131.10
2022-08-27T12:58:00.998Z,98132.96
2022-08-27T12:59:33.816Z,98130.34
2022-08-27T13:00:58.973Z,98129.86
2022-08-27T13:02:36.035Z,98126.70
2022-08-27T13:03:53.034Z,98126.62
2022-08-27T13:04:55.275Z,98125.69
2022-08-27T13:06:00.255Z,98123.86
2022-08-27T13:07:02.007Z,98125.71
2022-08-27T13:08:03.771Z,98119.67
2022-08-27T13:09:08.697Z,98122.80
2022-08-27T13:10:28.144Z,98121.30
2022-08-27T13:11:33.629Z,98122.67
2022-08-27T13:12:35.394Z,98122.10